sensor_id;sensor_type;location;lat;lon;timestamp;pressure;altitude;pressure_sealevel;temperature;humidity
74310;BME280;62722;51.142;17.052;2023-04-16T00:00:29;100009.59;;;8.37;91.31
74310;BME280;62722;51.142;17.052;2023-04-16T00:03:19;100009.84;;;8.32;91.42
74310;BME280;62722;51.142;17.052;2023-04-16T00:05:46;100008.31;;;8.28;92.17
74310;BME280;62722;51.142;17.052;2023-04-16T00:08:14;100004.72;;;8.30;92.30
74310;BME280;62722;51.142;17.052;2023-04-16T00:10:41;100010.22;;;8.26;91.54
74310;BME280;62722;51.142;17.052;2023-04-16T00:13:09;99999.09;;;8.21;91.14
74310;BME280;62722;51.142;17.052;2023-04-16T00:15:39;100000.88;;;8.20;91.25
74310;BME280;62722;51.142;17.052;2023-04-16T00:18:07;100015.66;;;8.23;91.02
74310;BME280;62722;51.142;17.052;2023-04-16T00:20:36;100015.00;;;8.19;91.48
74310;BME280;62722;51.142;17.052;2023-04-16T00:23:04;100003.31;;;8.09;91.70
74310;BME280;62722;51.142;17.052;2023-04-16T00:25:31;100006.41;;;8.02;92.36
74310;BME280;62722;51.142;17.052;2023-04-16T00:27:58;100010.91;;;8.00;91.72
74310;BME280;62722;51.142;17.052;2023-04-16T00:30:26;100006.41;;;8.02;91.72
74310;BME280;62722;51.142;17.052;2023-04-16T00:32:53;100008.72;;;7.92;91.79
74310;BME280;62722;51.142;17.052;2023-04-16T00:35:20;100003.66;;;7.89;92.21
74310;BME280;62722;51.142;17.052;2023-04-16T00:37:49;100008.13;;;7.87;92.49
74310;BME280;62722;51.142;17.052;2023-04-16T00:40:16;100014.09;;;7.91;92.90
74310;BME280;62722;51.142;17.052;2023-04-16T00:42:44;100003.22;;;7.97;91.68
74310;BME280;62722;51.142;17.052;2023-04-16T00:45:11;100011.53;;;7.89;92.21
74310;BME280;62722;51.142;17.052;2023-04-16T00:47:39;100017.97;;;7.83;92.79
74310;BME280;62722;51.142;17.052;2023-04-16T00:50:07;100020.34;;;7.88;92.69
74310;BME280;62722;51.142;17.052;2023-04-16T00:52:34;100022.25;;;7.70;93.45
74310;BME280;62722;51.142;17.052;2023-04-16T00:55:04;100023.47;;;7.65;93.57
74310;BME280;62722;51.142;17.052;2023-04-16T00:57:32;100013.22;;;7.60;93.91
74310;BME280;62722;51.142;17.052;2023-04-16T00:59:59;100011.22;;;7.50;94.02
74310;BME280;62722;51.142;17.052;2023-04-16T01:02:27;100011.22;;;7.50;94.51
74310;BME280;62722;51.142;17.052;2023-04-16T01:04:54;100012.16;;;7.49;94.79
74310;BME280;62722;51.142;17.052;2023-04-16T01:07:21;100021.78;;;7.48;94.73
74310;BME280;62722;51.142;17.052;2023-04-16T01:09:49;100018.44;;;7.46;95.02
74310;BME280;62722;51.142;17.052;2023-04-16T01:12:18;100022.16;;;7.42;95.05
74310;BME280;62722;51.142;17.052;2023-04-16T01:14:45;100035.97;;;7.30;95.29
74310;BME280;62722;51.142;17.052;2023-04-16T01:17:12;100034.09;;;7.32;96.21
74310;BME280;62722;51.142;17.052;2023-04-16T01:19:41;100043.22;;;7.41;95.67
74310;BME280;62722;51.142;17.052;2023-04-16T01:22:13;100045.06;;;7.54;95.13
74310;BME280;62722;51.142;17.052;2023-04-16T01:24:40;100043.97;;;7.58;94.32
74310;BME280;62722;51.142;17.052;2023-04-16T01:27:09;100042.81;;;7.48;94.39
74310;BME280;62722;51.142;17.052;2023-04-16T01:29:36;100039.44;;;7.46;94.88
74310;BME280;62722;51.142;17.052;2023-04-16T01:32:04;100045.69;;;7.28;94.78
74310;BME280;62722;51.142;17.052;2023-04-16T01:34:31;100043.59;;;7.34;94.54
74310;BME280;62722;51.142;17.052;2023-04-16T01:36:59;100038.25;;;7.05;95.30
74310;BME280;62722;51.142;17.052;2023-04-16T01:39:27;100048.41;;;7.11;95.79
74310;BME280;62722;51.142;17.052;2023-04-16T01:41:55;100031.38;;;7.18;95.22
74310;BME280;62722;51.142;17.052;2023-04-16T01:44:22;100044.19;;;7.24;95.26
74310;BME280;62722;51.142;17.052;2023-04-16T01:46:50;100039.75;;;7.24;94.55
74310;BME280;62722;51.142;17.052;2023-04-16T01:49:17;100039.75;;;7.24;94.48
74310;BME280;62722;51.142;17.052;2023-04-16T01:51:45;100041.97;;;7.32;94.43
74310;BME280;62722;51.142;17.052;2023-04-16T01:54:12;100040.09;;;7.34;94.07
74310;BME280;62722;51.142;17.052;2023-04-16T01:56:41;100038.34;;;7.34;93.46
74310;BME280;62722;51.142;17.052;2023-04-16T01:59:09;100048.91;;;7.33;92.98
74310;BME280;62722;51.142;17.052;2023-04-16T02:01:37;100048.31;;;7.28;93.45
74310;BME280;62722;51.142;17.052;2023-04-16T02:04:05;100049.50;;;7.22;93.33
74310;BME280;62722;51.142;17.052;2023-04-16T02:06:33;100046.38;;;7.16;93.62
74310;BME280;62722;51.142;17.052;2023-04-16T02:09:01;100049.84;;;7.16;93.95
74310;BME280;62722;51.142;17.052;2023-04-16T02:11:30;100046.38;;;7.16;93.73
74310;BME280;62722;51.142;17.052;2023-04-16T02:14:01;100055.91;;;7.17;93.59
74310;BME280;62722;51.142;17.052;2023-04-16T02:16:37;100051.88;;;7.11;93.79
74310;BME280;62722;51.142;17.052;2023-04-16T02:19:06;100055.34;;;7.12;93.98
74310;BME280;62722;51.142;17.052;2023-04-16T02:21:35;100055.19;;;7.15;93.40
74310;BME280;62722;51.142;17.052;2023-04-16T02:24:04;100052.13;;;7.07;93.38
74310;BME280;62722;51.142;17.052;2023-04-16T02:26:34;100057.72;;;7.01;93.37
74310;BME280;62722;51.142;17.052;2023-04-16T02:29:06;100061.44;;;6.97;93.86
74310;BME280;62722;51.142;17.052;2023-04-16T02:31:35;100064.28;;;6.92;93.99
74310;BME280;62722;51.142;17.052;2023-04-16T02:34:05;100061.34;;;6.98;93.76
74310;BME280;62722;51.142;17.052;2023-04-16T02:36:34;100063.56;;;7.06;93.19
74310;BME280;62722;51.142;17.052;2023-04-16T02:39:01;100064.31;;;7.08;92.94
74310;BME280;62722;51.142;17.052;2023-04-16T02:41:29;100073.44;;;7.01;92.79
74310;BME280;62722;51.142;17.052;2023-04-16T02:43:59;100072.25;;;6.91;93.45
74310;BME280;62722;51.142;17.052;2023-04-16T02:46:31;100067.94;;;6.90;94.18
74310;BME280;62722;51.142;17.052;2023-04-16T02:49:03;100076.56;;;6.92;93.33
74310;BME280;62722;51.142;17.052;2023-04-16T02:51:32;100074.63;;;6.95;93.16
74310;BME280;62722;51.142;17.052;2023-04-16T02:54:05;100075.44;;;6.80;93.11
74310;BME280;62722;51.142;17.052;2023-04-16T02:56:34;100081.47;;;6.82;93.51
74310;BME280;62722;51.142;17.052;2023-04-16T02:59:03;100083.22;;;6.81;93.44
74310;BME280;62722;51.142;17.052;2023-04-16T03:01:32;100096.56;;;6.77;93.19
74310;BME280;62722;51.142;17.052;2023-04-16T03:04:00;100083.72;;;6.72;93.46
74310;BME280;62722;51.142;17.052;2023-04-16T03:06:30;100096.13;;;6.69;93.14
74310;BME280;62722;51.142;17.052;2023-04-16T03:08:58;100099.59;;;6.69;92.76
74310;BME280;62722;51.142;17.052;2023-04-16T03:11:25;100095.19;;;6.70;92.59
74310;BME280;62722;51.142;17.052;2023-04-16T03:13:52;100103.25;;;6.67;92.77
74310;BME280;62722;51.142;17.052;2023-04-16T03:16:20;100102.72;;;6.60;92.72
74310;BME280;62722;51.142;17.052;2023-04-16T03:18:48;100111.38;;;6.45;93.08
74310;BME280;62722;51.142;17.052;2023-04-16T03:21:16;100103.56;;;6.44;94.25
74310;BME280;62722;51.142;17.052;2023-04-16T03:23:43;100112.91;;;6.49;94.00
74310;BME280;62722;51.142;17.052;2023-04-16T03:26:11;100122.53;;;6.49;94.30
74310;BME280;62722;51.142;17.052;2023-04-16T03:28:38;100111.19;;;6.48;94.11
74310;BME280;62722;51.142;17.052;2023-04-16T03:31:05;100118.75;;;6.54;94.29
74310;BME280;62722;51.142;17.052;2023-04-16T03:33:33;100120.75;;;6.66;93.71
74310;BME280;62722;51.142;17.052;2023-04-16T03:36:02;100118.75;;;6.71;93.58
74310;BME280;62722;51.142;17.052;2023-04-16T03:38:29;100126.59;;;6.71;93.67
74310;BME280;62722;51.142;17.052;2023-04-16T03:40:56;100124.50;;;6.78;93.09
74310;BME280;62722;51.142;17.052;2023-04-16T03:43:24;100129.75;;;6.78;92.99
74310;BME280;62722;51.142;17.052;2023-04-16T03:45:51;100131.28;;;6.82;93.28
74310;BME280;62722;51.142;17.052;2023-04-16T03:48:18;100136.47;;;6.83;92.73
74310;BME280;62722;51.142;17.052;2023-04-16T03:50:46;100130.09;;;6.88;92.64
74310;BME280;62722;51.142;17.052;2023-04-16T03:53:14;100135.69;;;6.81;93.65
74310;BME280;62722;51.142;17.052;2023-04-16T03:55:42;100139.84;;;6.85;93.14
74310;BME280;62722;51.142;17.052;2023-04-16T03:58:10;100141.78;;;6.82;93.28
74310;BME280;62722;51.142;17.052;2023-04-16T04:00:40;100139.22;;;6.80;93.18
74310;BME280;62722;51.142;17.052;2023-04-16T04:03:08;100152.59;;;6.76;93.35
74310;BME280;62722;51.142;17.052;2023-04-16T04:05:35;100144.81;;;6.74;93.78
74310;BME280;62722;51.142;17.052;2023-04-16T04:08:03;100140.56;;;6.72;94.06
74310;BME280;62722;51.142;17.052;2023-04-16T04:10:34;100157.91;;;6.74;94.69
74310;BME280;62722;51.142;17.052;2023-04-16T04:13:02;100159.84;;;6.71;94.21
74310;BME280;62722;51.142;17.052;2023-04-16T04:15:30;100170.03;;;6.77;94.42
74310;BME280;62722;51.142;17.052;2023-04-16T04:17:58;100169.84;;;6.80;94.24
74310;BME280;62722;51.142;17.052;2023-04-16T04:20:25;100172.75;;;6.75;94.38
74310;BME280;62722;51.142;17.052;2023-04-16T04:22:53;100174.56;;;6.73;94.94
74310;BME280;62722;51.142;17.052;2023-04-16T04:25:20;100173.59;;;6.76;94.86
74310;BME280;62722;51.142;17.052;2023-04-16T04:27:49;100179.38;;;6.82;94.92
74310;BME280;62722;51.142;17.052;2023-04-16T04:30:16;100180.75;;;6.90;94.41
74310;BME280;62722;51.142;17.052;2023-04-16T04:32:44;100175.09;;;6.97;94.58
74310;BME280;62722;51.142;17.052;2023-04-16T04:35:11;100189.66;;;7.03;94.43
74310;BME280;62722;51.142;17.052;2023-04-16T04:37:38;100184.50;;;7.01;94.57
74310;BME280;62722;51.142;17.052;2023-04-16T04:40:07;100182.56;;;7.05;94.38
74310;BME280;62722;51.142;17.052;2023-04-16T04:42:36;100185.38;;;7.02;94.38
74310;BME280;62722;51.142;17.052;2023-04-16T04:45:06;100183.25;;;7.08;93.91
74310;BME280;62722;51.142;17.052;2023-04-16T04:47:34;100184.09;;;7.09;93.78
74310;BME280;62722;51.142;17.052;2023-04-16T04:50:01;100179.63;;;7.11;93.55
74310;BME280;62722;51.142;17.052;2023-04-16T04:52:29;100180.53;;;7.10;94.20
74310;BME280;62722;51.142;17.052;2023-04-16T04:54:56;100183.94;;;7.12;94.42
74310;BME280;62722;51.142;17.052;2023-04-16T04:57:23;100189.94;;;7.14;94.05
74310;BME280;62722;51.142;17.052;2023-04-16T04:59:51;100176.81;;;7.14;93.61
74310;BME280;62722;51.142;17.052;2023-04-16T05:02:19;100182.00;;;7.15;93.87
74310;BME280;62722;51.142;17.052;2023-04-16T05:04:47;100178.28;;;7.19;94.04
74310;BME280;62722;51.142;17.052;2023-04-16T05:07:15;100177.78;;;7.13;94.54
74310;BME280;62722;51.142;17.052;2023-04-16T05:09:42;100186.72;;;7.09;94.96
74310;BME280;62722;51.142;17.052;2023-04-16T05:12:10;100185.94;;;7.07;95.23
74310;BME280;62722;51.142;17.052;2023-04-16T05:14:37;100198.16;;;7.08;95.16
74310;BME280;62722;51.142;17.052;2023-04-16T05:17:04;100203.91;;;7.14;95.57
74310;BME280;62722;51.142;17.052;2023-04-16T05:19:34;100204.59;;;7.18;95.56
74310;BME280;62722;51.142;17.052;2023-04-16T05:22:01;100207.31;;;7.16;95.54
74310;BME280;62722;51.142;17.052;2023-04-16T05:24:28;100216.47;;;7.25;95.56
74310;BME280;62722;51.142;17.052;2023-04-16T05:26:56;100219.56;;;7.33;95.13
74310;BME280;62722;51.142;17.052;2023-04-16T05:29:23;100227.88;;;7.41;95.05
74310;BME280;62722;51.142;17.052;2023-04-16T05:31:51;100215.09;;;7.51;94.95
74310;BME280;62722;51.142;17.052;2023-04-16T05:34:19;100215.69;;;7.56;94.18
74310;BME280;62722;51.142;17.052;2023-04-16T05:36:47;100222.25;;;7.64;94.34
74310;BME280;62722;51.142;17.052;2023-04-16T05:39:15;100220.53;;;7.63;94.43
74310;BME280;62722;51.142;17.052;2023-04-16T05:41:43;100241.66;;;7.77;94.21
74310;BME280;62722;51.142;17.052;2023-04-16T05:44:11;100239.03;;;7.77;94.23
74310;BME280;62722;51.142;17.052;2023-04-16T05:46:40;100244.72;;;7.86;93.91
74310;BME280;62722;51.142;17.052;2023-04-16T05:49:07;100241.75;;;7.92;94.11
74310;BME280;62722;51.142;17.052;2023-04-16T05:51:37;100244.97;;;7.97;93.79
74310;BME280;62722;51.142;17.052;2023-04-16T05:54:06;100243.63;;;8.05;93.32
74310;BME280;62722;51.142;17.052;2023-04-16T05:56:33;100246.16;;;8.07;93.20
74310;BME280;62722;51.142;17.052;2023-04-16T05:59:00;100246.94;;;8.09;92.95
74310;BME280;62722;51.142;17.052;2023-04-16T06:01:27;100261.94;;;8.07;93.13
74310;BME280;62722;51.142;17.052;2023-04-16T06:03:55;100255.06;;;8.04;93.28
74310;BME280;62722;51.142;17.052;2023-04-16T06:06:22;100259.47;;;8.04;93.65
74310;BME280;62722;51.142;17.052;2023-04-16T06:08:50;100264.81;;;8.02;93.64
74310;BME280;62722;51.142;17.052;2023-04-16T06:11:18;100269.06;;;8.05;94.05
74310;BME280;62722;51.142;17.052;2023-04-16T06:13:46;100274.16;;;8.08;93.52
74310;BME280;62722;51.142;17.052;2023-04-16T06:16:14;100268.72;;;8.11;93.65
74310;BME280;62722;51.142;17.052;2023-04-16T06:18:44;100281.00;;;8.10;93.68
74310;BME280;62722;51.142;17.052;2023-04-16T06:21:11;100284.50;;;8.11;93.76
74310;BME280;62722;51.142;17.052;2023-04-16T06:23:39;100270.41;;;8.12;93.70
74310;BME280;62722;51.142;17.052;2023-04-16T06:26:06;100285.16;;;8.14;93.86
74310;BME280;62722;51.142;17.052;2023-04-16T06:28:36;100287.72;;;8.16;93.66
74310;BME280;62722;51.142;17.052;2023-04-16T06:31:03;100288.56;;;8.16;93.31
74310;BME280;62722;51.142;17.052;2023-04-16T06:33:31;100287.56;;;8.19;93.50
74310;BME280;62722;51.142;17.052;2023-04-16T06:35:58;100286.19;;;8.27;93.66
74310;BME280;62722;51.142;17.052;2023-04-16T06:38:26;100294.88;;;8.29;93.64
74310;BME280;62722;51.142;17.052;2023-04-16T06:40:53;100298.00;;;8.36;93.72
74310;BME280;62722;51.142;17.052;2023-04-16T06:43:21;100303.25;;;8.36;93.44
74310;BME280;62722;51.142;17.052;2023-04-16T06:45:50;100296.72;;;8.43;92.98
74310;BME280;62722;51.142;17.052;2023-04-16T06:48:17;100287.66;;;8.49;93.21
74310;BME280;62722;51.142;17.052;2023-04-16T06:50:45;100286.13;;;8.60;92.76
74310;BME280;62722;51.142;17.052;2023-04-16T06:53:12;100283.72;;;8.71;92.54
74310;BME280;62722;51.142;17.052;2023-04-16T06:55:40;100280.72;;;8.77;92.29
74310;BME280;62722;51.142;17.052;2023-04-16T06:58:07;100292.41;;;8.88;91.87
74310;BME280;62722;51.142;17.052;2023-04-16T07:00:34;100290.72;;;8.87;91.60
74310;BME280;62722;51.142;17.052;2023-04-16T07:03:04;100302.25;;;8.84;91.95
74310;BME280;62722;51.142;17.052;2023-04-16T07:05:31;100295.03;;;8.88;91.63
74310;BME280;62722;51.142;17.052;2023-04-16T07:07:59;100303.53;;;8.93;91.67
74310;BME280;62722;51.142;17.052;2023-04-16T07:10:26;100310.06;;;9.01;91.68
74310;BME280;62722;51.142;17.052;2023-04-16T07:12:56;100317.50;;;9.09;92.16
74310;BME280;62722;51.142;17.052;2023-04-16T07:15:23;100323.69;;;9.08;90.98
74310;BME280;62722;51.142;17.052;2023-04-16T07:17:53;100322.19;;;9.04;90.95
74310;BME280;62722;51.142;17.052;2023-04-16T07:20:25;100328.72;;;8.97;91.14
74310;BME280;62722;51.142;17.052;2023-04-16T07:22:53;100329.06;;;8.91;91.55
74310;BME280;62722;51.142;17.052;2023-04-16T07:25:20;100332.91;;;8.85;91.73
74310;BME280;62722;51.142;17.052;2023-04-16T07:27:48;100330.47;;;8.82;91.40
74310;BME280;62722;51.142;17.052;2023-04-16T07:30:15;100340.06;;;8.83;91.37
74310;BME280;62722;51.142;17.052;2023-04-16T07:32:44;100334.09;;;8.79;91.44
74310;BME280;62722;51.142;17.052;2023-04-16T07:35:11;100333.94;;;8.83;91.65
74310;BME280;62722;51.142;17.052;2023-04-16T07:37:40;100333.50;;;8.90;92.08
74310;BME280;62722;51.142;17.052;2023-04-16T07:40:08;100338.78;;;8.90;91.84
74310;BME280;62722;51.142;17.052;2023-04-16T07:42:36;100346.56;;;8.92;92.16
74310;BME280;62722;51.142;17.052;2023-04-16T07:45:03;100352.50;;;8.95;91.25
74310;BME280;62722;51.142;17.052;2023-04-16T07:47:31;100346.31;;;8.96;91.20
74310;BME280;62722;51.142;17.052;2023-04-16T07:49:59;100348.88;;;8.98;91.72
74310;BME280;62722;51.142;17.052;2023-04-16T07:52:27;100356.59;;;9.01;90.95
74310;BME280;62722;51.142;17.052;2023-04-16T07:54:55;100348.69;;;9.01;91.24
74310;BME280;62722;51.142;17.052;2023-04-16T07:57:23;100353.16;;;8.99;91.14
74310;BME280;62722;51.142;17.052;2023-04-16T07:59:50;100358.63;;;8.96;91.60
74310;BME280;62722;51.142;17.052;2023-04-16T08:02:18;100355.91;;;8.97;91.91
74310;BME280;62722;51.142;17.052;2023-04-16T08:04:46;100353.16;;;8.99;91.83
74310;BME280;62722;51.142;17.052;2023-04-16T08:07:14;100357.13;;;9.06;92.38
74310;BME280;62722;51.142;17.052;2023-04-16T08:09:46;100361.28;;;9.10;91.09
74310;BME280;62722;51.142;17.052;2023-04-16T08:12:16;100364.34;;;9.18;91.68
74310;BME280;62722;51.142;17.052;2023-04-16T08:14:43;100360.59;;;9.22;90.99
74310;BME280;62722;51.142;17.052;2023-04-16T08:17:11;100356.94;;;9.24;90.38
74310;BME280;62722;51.142;17.052;2023-04-16T08:19:38;100362.72;;;9.31;90.20
74310;BME280;62722;51.142;17.052;2023-04-16T08:22:06;100358.66;;;9.40;89.93
74310;BME280;62722;51.142;17.052;2023-04-16T08:24:34;100372.16;;;9.49;89.39
74310;BME280;62722;51.142;17.052;2023-04-16T08:27:01;100365.38;;;9.59;89.49
74310;BME280;62722;51.142;17.052;2023-04-16T08:29:30;100373.31;;;9.73;88.99
74310;BME280;62722;51.142;17.052;2023-04-16T08:31:58;100358.94;;;9.93;88.89
74310;BME280;62722;51.142;17.052;2023-04-16T08:34:25;100368.25;;;9.99;87.37
74310;BME280;62722;51.142;17.052;2023-04-16T08:36:53;100371.06;;;10.10;87.30
74310;BME280;62722;51.142;17.052;2023-04-16T08:39:20;100360.31;;;10.13;86.37
74310;BME280;62722;51.142;17.052;2023-04-16T08:41:48;100366.56;;;10.26;87.14
74310;BME280;62722;51.142;17.052;2023-04-16T08:44:19;100358.63;;;10.40;86.24
74310;BME280;62722;51.142;17.052;2023-04-16T08:46:50;100366.72;;;10.51;85.47
74310;BME280;62722;51.142;17.052;2023-04-16T08:49:22;100368.94;;;10.57;85.41
74310;BME280;62722;51.142;17.052;2023-04-16T08:51:51;100380.81;;;10.64;84.14
74310;BME280;62722;51.142;17.052;2023-04-16T08:54:28;100376.09;;;10.69;83.91
74310;BME280;62722;51.142;17.052;2023-04-16T08:56:58;100377.50;;;10.75;84.21
74310;BME280;62722;51.142;17.052;2023-04-16T08:59:26;100382.09;;;10.86;83.89
74310;BME280;62722;51.142;17.052;2023-04-16T09:01:57;100395.75;;;10.92;83.94
74310;BME280;62722;51.142;17.052;2023-04-16T09:04:25;100384.53;;;10.89;83.28
74310;BME280;62722;51.142;17.052;2023-04-16T09:06:54;100385.25;;;10.91;83.26
74310;BME280;62722;51.142;17.052;2023-04-16T09:09:22;100393.13;;;11.05;82.71
74310;BME280;62722;51.142;17.052;2023-04-16T09:11:50;100394.09;;;11.04;82.08
74310;BME280;62722;51.142;17.052;2023-04-16T09:14:18;100390.09;;;11.11;82.03
74310;BME280;62722;51.142;17.052;2023-04-16T09:16:47;100395.88;;;11.03;79.84
74310;BME280;62722;51.142;17.052;2023-04-16T09:19:16;100396.13;;;11.13;80.67
74310;BME280;62722;51.142;17.052;2023-04-16T09:21:45;100397.75;;;11.15;80.40
74310;BME280;62722;51.142;17.052;2023-04-16T09:24:13;100399.13;;;11.21;81.18
74310;BME280;62722;51.142;17.052;2023-04-16T09:26:41;100400.31;;;11.30;79.66
74310;BME280;62722;51.142;17.052;2023-04-16T09:29:09;100398.53;;;11.30;80.83
74310;BME280;62722;51.142;17.052;2023-04-16T09:31:37;100386.03;;;11.32;80.64
74310;BME280;62722;51.142;17.052;2023-04-16T09:34:04;100402.25;;;11.40;79.69
74310;BME280;62722;51.142;17.052;2023-04-16T09:36:34;100399.81;;;11.37;80.44
74310;BME280;62722;51.142;17.052;2023-04-16T09:39:03;100401.59;;;11.37;80.44
74310;BME280;62722;51.142;17.052;2023-04-16T09:41:32;100398.09;;;11.36;79.98
74310;BME280;62722;51.142;17.052;2023-04-16T09:44:02;100412.72;;;11.42;80.61
74310;BME280;62722;51.142;17.052;2023-04-16T09:46:31;100412.59;;;11.43;80.26
74310;BME280;62722;51.142;17.052;2023-04-16T09:49:04;100409.97;;;11.43;79.56
74310;BME280;62722;51.142;17.052;2023-04-16T09:51:40;100416.94;;;11.44;79.34
74310;BME280;62722;51.142;17.052;2023-04-16T09:54:07;100417.78;;;11.45;79.12
74310;BME280;62722;51.142;17.052;2023-04-16T09:56:39;100422.09;;;11.46;79.86
74310;BME280;62722;51.142;17.052;2023-04-16T09:59:10;100413.66;;;11.53;79.60
74310;BME280;62722;51.142;17.052;2023-04-16T10:01:43;100413.50;;;11.56;78.87
74310;BME280;62722;51.142;17.052;2023-04-16T10:04:11;100419.00;;;11.66;78.04
74310;BME280;62722;51.142;17.052;2023-04-16T10:06:40;100423.69;;;11.75;76.74
74310;BME280;62722;51.142;17.052;2023-04-16T10:09:09;100422.00;;;11.74;75.20
74310;BME280;62722;51.142;17.052;2023-04-16T10:11:37;100420.94;;;11.77;74.79
74310;BME280;62722;51.142;17.052;2023-04-16T10:14:04;100419.34;;;11.87;73.07
74310;BME280;62722;51.142;17.052;2023-04-16T10:16:32;100419.69;;;11.82;72.72
74310;BME280;62722;51.142;17.052;2023-04-16T10:19:00;100426.13;;;11.91;72.18
74310;BME280;62722;51.142;17.052;2023-04-16T10:21:28;100418.53;;;11.99;71.98
74310;BME280;62722;51.142;17.052;2023-04-16T10:24:00;100417.91;;;12.08;71.39
74310;BME280;62722;51.142;17.052;2023-04-16T10:26:28;100421.91;;;12.13;72.05
74310;BME280;62722;51.142;17.052;2023-04-16T10:28:57;100409.72;;;12.36;72.32
74310;BME280;62722;51.142;17.052;2023-04-16T10:31:25;100410.84;;;12.57;71.53
74310;BME280;62722;51.142;17.052;2023-04-16T10:33:53;100406.38;;;12.58;66.71
74310;BME280;62722;51.142;17.052;2023-04-16T10:36:23;100413.38;;;12.59;63.19
74310;BME280;62722;51.142;17.052;2023-04-16T10:38:51;100406.78;;;12.64;62.27
74310;BME280;62722;51.142;17.052;2023-04-16T10:41:21;100407.94;;;12.73;64.78
74310;BME280;62722;51.142;17.052;2023-04-16T10:43:49;100416.75;;;12.74;61.05
74310;BME280;62722;51.142;17.052;2023-04-16T10:46:19;100409.97;;;12.69;62.18
74310;BME280;62722;51.142;17.052;2023-04-16T10:48:46;100410.69;;;12.72;64.75
74310;BME280;62722;51.142;17.052;2023-04-16T10:51:25;100414.56;;;12.79;63.59
74310;BME280;62722;51.142;17.052;2023-04-16T10:53:54;100410.75;;;12.83;60.72
74310;BME280;62722;51.142;17.052;2023-04-16T10:56:24;100414.78;;;12.88;60.09
74310;BME280;62722;51.142;17.052;2023-04-16T10:58:52;100413.69;;;12.91;56.71
74310;BME280;62722;51.142;17.052;2023-04-16T11:01:28;100418.78;;;12.94;57.04
74310;BME280;62722;51.142;17.052;2023-04-16T11:03:57;100420.25;;;12.98;54.53
74310;BME280;62722;51.142;17.052;2023-04-16T11:06:27;100414.84;;;12.99;54.59
74310;BME280;62722;51.142;17.052;2023-04-16T11:08:54;100420.00;;;13.01;55.48
74310;BME280;62722;51.142;17.052;2023-04-16T11:11:23;100416.19;;;13.05;56.97
74310;BME280;62722;51.142;17.052;2023-04-16T11:13:54;100415.78;;;13.11;58.93
74310;BME280;62722;51.142;17.052;2023-04-16T11:16:23;100410.78;;;13.19;60.33
74310;BME280;62722;51.142;17.052;2023-04-16T11:18:50;100404.06;;;13.26;55.60
74310;BME280;62722;51.142;17.052;2023-04-16T11:21:18;100407.19;;;13.31;60.67
74310;BME280;62722;51.142;17.052;2023-04-16T11:23:47;100409.59;;;13.34;58.70
74310;BME280;62722;51.142;17.052;2023-04-16T11:26:27;100401.03;;;13.31;55.98
74310;BME280;62722;51.142;17.052;2023-04-16T11:28:55;100409.28;;;13.39;58.47
74310;BME280;62722;51.142;17.052;2023-04-16T11:31:23;100408.03;;;13.32;59.24
74310;BME280;62722;51.142;17.052;2023-04-16T11:33:51;100418.59;;;13.44;60.13
74310;BME280;62722;51.142;17.052;2023-04-16T11:36:22;100410.63;;;13.44;60.51
74310;BME280;62722;51.142;17.052;2023-04-16T11:39:00;100412.88;;;13.38;59.89
74310;BME280;62722;51.142;17.052;2023-04-16T11:41:29;100418.22;;;13.49;59.04
74310;BME280;62722;51.142;17.052;2023-04-16T11:43:56;100416.41;;;13.49;58.89
74310;BME280;62722;51.142;17.052;2023-04-16T11:46:36;100423.09;;;13.55;58.68
74310;BME280;62722;51.142;17.052;2023-04-16T11:49:04;100422.22;;;13.54;60.50
74310;BME280;62722;51.142;17.052;2023-04-16T11:51:31;100417.88;;;13.53;60.24
74310;BME280;62722;51.142;17.052;2023-04-16T11:53:59;100416.97;;;13.65;60.45
74310;BME280;62722;51.142;17.052;2023-04-16T11:56:29;100412.13;;;13.59;60.36
74310;BME280;62722;51.142;17.052;2023-04-16T11:59:09;100409.97;;;13.64;60.69
74310;BME280;62722;51.142;17.052;2023-04-16T12:01:39;100406.41;;;13.88;62.18
74310;BME280;62722;51.142;17.052;2023-04-16T12:04:07;100405.81;;;13.95;59.62
74310;BME280;62722;51.142;17.052;2023-04-16T12:06:35;100412.66;;;13.87;57.45
74310;BME280;62722;51.142;17.052;2023-04-16T12:09:23;100409.41;;;13.83;57.88
74310;BME280;62722;51.142;17.052;2023-04-16T12:11:52;100412.06;;;13.83;58.97
74310;BME280;62722;51.142;17.052;2023-04-16T12:14:19;100410.97;;;13.86;59.54
74310;BME280;62722;51.142;17.052;2023-04-16T12:16:47;100405.69;;;13.97;57.45
74310;BME280;62722;51.142;17.052;2023-04-16T12:19:14;100411.00;;;13.97;59.23
74310;BME280;62722;51.142;17.052;2023-04-16T12:21:43;100405.84;;;14.06;59.36
74310;BME280;62722;51.142;17.052;2023-04-16T12:24:14;100412.00;;;14.07;59.57
74310;BME280;62722;51.142;17.052;2023-04-16T12:26:44;100400.03;;;14.12;59.48
74310;BME280;62722;51.142;17.052;2023-04-16T12:29:18;100406.94;;;14.15;59.70
74310;BME280;62722;51.142;17.052;2023-04-16T12:31:47;100408.50;;;14.18;59.09
74310;BME280;62722;51.142;17.052;2023-04-16T12:34:15;100392.91;;;14.02;59.08
74310;BME280;62722;51.142;17.052;2023-04-16T12:36:44;100407.53;;;14.07;57.96
74310;BME280;62722;51.142;17.052;2023-04-16T12:39:13;100398.22;;;14.02;58.83
74310;BME280;62722;51.142;17.052;2023-04-16T12:41:42;100403.53;;;14.02;59.25
74310;BME280;62722;51.142;17.052;2023-04-16T12:44:14;100401.97;;;13.99;58.72
74310;BME280;62722;51.142;17.052;2023-04-16T12:46:44;100403.88;;;13.97;57.19
74310;BME280;62722;51.142;17.052;2023-04-16T12:49:12;100405.91;;;13.94;57.50
74310;BME280;62722;51.142;17.052;2023-04-16T12:51:40;100403.03;;;13.97;57.03
74310;BME280;62722;51.142;17.052;2023-04-16T12:54:08;100405.06;;;13.93;56.12